Great Hebei — VRFU6 — position and weather

sailwx.info

Track history (hours):
 
Tides and Currents Weather Stations Pressure Air Temp Water Temp Dewpoint Dewpoint Depression Visibility Wind Speed Wind Dir Waves Ship Positions

Great Hebei

Last reported at 2016-Aug-20 08:25 UTC. Time now 2016-Aug-27 08:07 UTC.
Position N 22°34' E 119°48'.

Length 295 m; draft 8.6 m.

Type: Cargo ship. MMSI: 477617100.

Date/timePositionNaut miles runAvg speedWind from/ knotsBaromVisibWave heightAir tempDewpointWater temp
2016-Aug-20 08:25N 22°34' E 119°48'8 9.4
2016-Aug-20 07:33N 22°42' E 119°50'  
2016-Aug-17 11:21N 31°19' E 121°43'911.6
2016-Aug-17 10:33N 31°24' E 121°34'9 9.3
2016-Aug-17 09:33N 31°30' E 121°25'1211.8
2016-Aug-17 08:33N 31°38' E 121°15'1413.7
2016-Aug-17 07:33N 31°46' E 121°02'3411.2
2016-Aug-17 04:33N 32°02' E 120°27'1111.1
2016-Aug-17 03:33N 31°57' E 120°16'7 6.7
2016-Aug-17 02:33N 31°56' E 120°08'0 0.0
2016-Aug-17 01:33N 31°56' E 120°08'0 0.0
2016-Aug-17 00:33N 31°56' E 120°08'0 0.0
2016-Aug-16 23:33N 31°56' E 120°08'0 0.0
2016-Aug-16 22:33N 31°56' E 120°08'0 0.0
2016-Aug-16 21:33N 31°56' E 120°08'0 0.0
2016-Aug-16 20:15N 31°56' E 120°08'0 0.0
2016-Aug-16 19:27N 31°56' E 120°08'0 0.0
2016-Aug-16 18:15N 31°56' E 120°08'0 0.0
2016-Aug-16 17:09N 31°56' E 120°08'0 0.0
2016-Aug-16 16:32N 31°56' E 120°08'0 0.0
2016-Aug-16 15:27N 31°56' E 120°08'0 0.0
2016-Aug-16 13:26N 31°56' E 120°08'0 0.0
2016-Aug-16 12:15N 31°56' E 120°08'0 0.0
2016-Aug-16 11:33N 31°56' E 120°08'0 0.0
2016-Aug-16 10:15N 31°56' E 120°08'0 0.0
2016-Aug-16 07:27N 31°56' E 120°08'0 0.0
2016-Aug-16 02:27N 31°56' E 120°08'0 0.1
2016-Aug-16 01:27N 31°56' E 120°08'0 0.1
2016-Aug-16 00:33N 31°56' E 120°08'0 0.0
2016-Aug-15 23:33N 31°56' E 120°08'0 0.0
2016-Aug-15 22:33N 31°56' E 120°08'0 0.0
2016-Aug-15 21:27N 31°56' E 120°08'0 0.0
2016-Aug-15 20:33N 31°56' E 120°08'0 0.0
2016-Aug-15 19:33N 31°56' E 120°08'0 0.0
2016-Aug-15 18:33N 31°56' E 120°08'0 0.0
2016-Aug-15 11:15N 31°56' E 120°08'0 0.0
2016-Aug-15 10:33N 31°56' E 120°08'0 0.0
2016-Aug-15 09:09N 31°56' E 120°08'0 0.0
2016-Aug-15 08:32N 31°56' E 120°08'0 0.0
2016-Aug-15 07:33N 31°56' E 120°08'4 4.3
2016-Aug-15 06:33N 31°56' E 120°13'16 8.0
2016-Aug-15 04:33N 32°02' E 120°31'37 9.2
2016-Aug-15 00:31N 31°43' E 121°08'1110.8
2016-Aug-14 23:32N 31°36' E 121°18'1 0.3
2016-Aug-14 19:32N 31°36' E 121°19'0 0.0
2016-Aug-14 18:26N 31°36' E 121°19'0 0.0
2016-Aug-14 17:32N 31°36' E 121°19'0 0.2
2016-Aug-14 16:14N 31°36' E 121°19'0 0.1
2016-Aug-14 15:20N 31°36' E 121°19'1 1.3
2016-Aug-14 14:33N 31°35' E 121°19'10 9.6
2016-Aug-14 13:33N 31°28' E 121°27'1010.3
2016-Aug-14 12:34N 31°22' E 121°37'  
2016-Aug-11 14:25N 24°32' E 119°16'8711.1
2016-Aug-11 06:33N 23°41' E 117°59'  
Track history (hours):
 
Tides and Currents Weather Stations Pressure Air Temp Water Temp Dewpoint Dewpoint Depression Visibility Wind Speed Wind Dir Waves Ship Positions

Great Hebei

Last reported at 2016-Aug-20 08:25 UTC. Time now 2016-Aug-27 08:07 UTC.
Position N 22°34' E 119°48'.

Length 295 m; draft 8.6 m.

Type: Cargo ship. MMSI: 477617100.

Date/timePositionNaut miles runAvg speedWind from/ knotsBaromVisibWave heightAir tempDewpointWater temp
2016-Aug-20 08:25N 22°34' E 119°48'8 9.4
2016-Aug-20 07:33N 22°42' E 119°50'  
2016-Aug-17 11:21N 31°19' E 121°43'911.6
2016-Aug-17 10:33N 31°24' E 121°34'9 9.3
2016-Aug-17 09:33N 31°30' E 121°25'1211.8
2016-Aug-17 08:33N 31°38' E 121°15'1413.7
2016-Aug-17 07:33N 31°46' E 121°02'3411.2
2016-Aug-17 04:33N 32°02' E 120°27'1111.1
2016-Aug-17 03:33N 31°57' E 120°16'7 6.7
2016-Aug-17 02:33N 31°56' E 120°08'0 0.0
2016-Aug-17 01:33N 31°56' E 120°08'0 0.0
2016-Aug-17 00:33N 31°56' E 120°08'0 0.0
2016-Aug-16 23:33N 31°56' E 120°08'0 0.0
2016-Aug-16 22:33N 31°56' E 120°08'0 0.0
2016-Aug-16 21:33N 31°56' E 120°08'0 0.0
2016-Aug-16 20:15N 31°56' E 120°08'0 0.0
2016-Aug-16 19:27N 31°56' E 120°08'0 0.0
2016-Aug-16 18:15N 31°56' E 120°08'0 0.0
2016-Aug-16 17:09N 31°56' E 120°08'0 0.0
2016-Aug-16 16:32N 31°56' E 120°08'0 0.0
2016-Aug-16 15:27N 31°56' E 120°08'0 0.0
2016-Aug-16 13:26N 31°56' E 120°08'0 0.0
2016-Aug-16 12:15N 31°56' E 120°08'0 0.0
2016-Aug-16 11:33N 31°56' E 120°08'0 0.0
2016-Aug-16 10:15N 31°56' E 120°08'0 0.0
2016-Aug-16 07:27N 31°56' E 120°08'0 0.0
2016-Aug-16 02:27N 31°56' E 120°08'0 0.1
2016-Aug-16 01:27N 31°56' E 120°08'0 0.1
2016-Aug-16 00:33N 31°56' E 120°08'0 0.0
2016-Aug-15 23:33N 31°56' E 120°08'0 0.0
2016-Aug-15 22:33N 31°56' E 120°08'0 0.0
2016-Aug-15 21:27N 31°56' E 120°08'0 0.0
2016-Aug-15 20:33N 31°56' E 120°08'0 0.0
2016-Aug-15 19:33N 31°56' E 120°08'0 0.0
2016-Aug-15 18:33N 31°56' E 120°08'0 0.0
2016-Aug-15 11:15N 31°56' E 120°08'0 0.0
2016-Aug-15 10:33N 31°56' E 120°08'0 0.0
2016-Aug-15 09:09N 31°56' E 120°08'0 0.0
2016-Aug-15 08:32N 31°56' E 120°08'0 0.0
2016-Aug-15 07:33N 31°56' E 120°08'4 4.3
2016-Aug-15 06:33N 31°56' E 120°13'16 8.0
2016-Aug-15 04:33N 32°02' E 120°31'37 9.2
2016-Aug-15 00:31N 31°43' E 121°08'1110.8
2016-Aug-14 23:32N 31°36' E 121°18'1 0.3
2016-Aug-14 19:32N 31°36' E 121°19'0 0.0
2016-Aug-14 18:26N 31°36' E 121°19'0 0.0
2016-Aug-14 17:32N 31°36' E 121°19'0 0.2
2016-Aug-14 16:14N 31°36' E 121°19'0 0.1
2016-Aug-14 15:20N 31°36' E 121°19'1 1.3
2016-Aug-14 14:33N 31°35' E 121°19'10 9.6
2016-Aug-14 13:33N 31°28' E 121°27'1010.3
2016-Aug-14 12:34N 31°22' E 121°37'  
2016-Aug-11 14:25N 24°32' E 119°16'8711.1
2016-Aug-11 06:33N 23°41' E 117°59'  

Dump ship's entire track history